sensor_id;sensor_type;location;lat;lon;timestamp;temperature;humidity
5711;DHT22;61291;52.524;13.422;2022-11-20T00:00:54;2.90;99.90
5711;DHT22;61291;52.524;13.422;2022-11-20T00:03:20;2.90;99.90
5711;DHT22;61291;52.524;13.422;2022-11-20T00:05:46;2.90;99.90
5711;DHT22;61291;52.524;13.422;2022-11-20T00:08:12;2.90;99.90
5711;DHT22;61291;52.524;13.422;2022-11-20T00:10:38;2.90;99.90
5711;DHT22;61291;52.524;13.422;2022-11-20T00:13:04;2.90;99.90
5711;DHT22;61291;52.524;13.422;2022-11-20T00:15:30;2.90;99.90
5711;DHT22;61291;52.524;13.422;2022-11-20T00:17:56;2.90;99.90
5711;DHT22;61291;52.524;13.422;2022-11-20T00:20:21;2.90;99.90
5711;DHT22;61291;52.524;13.422;2022-11-20T00:22:47;2.90;99.90
5711;DHT22;61291;52.524;13.422;2022-11-20T00:25:13;2.90;99.90
5711;DHT22;61291;52.524;13.422;2022-11-20T00:27:38;2.90;99.90
5711;DHT22;61291;52.524;13.422;2022-11-20T00:30:05;2.80;99.90
5711;DHT22;61291;52.524;13.422;2022-11-20T00:32:31;2.80;99.90
5711;DHT22;61291;52.524;13.422;2022-11-20T00:34:56;2.80;99.90
5711;DHT22;61291;52.524;13.422;2022-11-20T00:37:22;2.80;99.90
5711;DHT22;61291;52.524;13.422;2022-11-20T00:39:47;2.90;99.90
5711;DHT22;61291;52.524;13.422;2022-11-20T00:42:15;2.80;99.90
5711;DHT22;61291;52.524;13.422;2022-11-20T00:44:41;2.80;99.90
5711;DHT22;61291;52.524;13.422;2022-11-20T00:47:06;2.90;99.90
5711;DHT22;61291;52.524;13.422;2022-11-20T00:49:32;2.90;99.90
5711;DHT22;61291;52.524;13.422;2022-11-20T00:51:57;2.90;99.90
5711;DHT22;61291;52.524;13.422;2022-11-20T00:54:23;2.80;99.90
5711;DHT22;61291;52.524;13.422;2022-11-20T00:56:48;2.80;99.90
5711;DHT22;61291;52.524;13.422;2022-11-20T00:59:14;2.80;99.90
5711;DHT22;61291;52.524;13.422;2022-11-20T01:01:39;2.80;99.90
5711;DHT22;61291;52.524;13.422;2022-11-20T01:04:05;2.80;99.90
5711;DHT22;61291;52.524;13.422;2022-11-20T01:06:33;2.80;99.90
5711;DHT22;61291;52.524;13.422;2022-11-20T01:09:01;2.80;99.90
5711;DHT22;61291;52.524;13.422;2022-11-20T01:11:31;2.70;99.90
5711;DHT22;61291;52.524;13.422;2022-11-20T01:13:58;2.70;99.90
5711;DHT22;61291;52.524;13.422;2022-11-20T01:16:26;2.70;99.90
5711;DHT22;61291;52.524;13.422;2022-11-20T01:18:53;2.70;99.90
5711;DHT22;61291;52.524;13.422;2022-11-20T01:21:24;2.70;99.90
5711;DHT22;61291;52.524;13.422;2022-11-20T01:23:51;2.70;99.90
5711;DHT22;61291;52.524;13.422;2022-11-20T01:26:20;2.70;99.90
5711;DHT22;61291;52.524;13.422;2022-11-20T01:28:46;2.70;99.90
5711;DHT22;61291;52.524;13.422;2022-11-20T01:31:27;2.70;99.90
5711;DHT22;61291;52.524;13.422;2022-11-20T01:33:55;2.70;99.90
5711;DHT22;61291;52.524;13.422;2022-11-20T01:36:22;2.70;99.90
5711;DHT22;61291;52.524;13.422;2022-11-20T01:38:51;2.70;99.90
5711;DHT22;61291;52.524;13.422;2022-11-20T01:41:17;2.70;99.90
5711;DHT22;61291;52.524;13.422;2022-11-20T01:44:02;2.80;99.90
5711;DHT22;61291;52.524;13.422;2022-11-20T01:46:28;2.70;99.90
5711;DHT22;61291;52.524;13.422;2022-11-20T01:49:01;2.80;99.90
5711;DHT22;61291;52.524;13.422;2022-11-20T01:51:35;2.80;99.90
5711;DHT22;61291;52.524;13.422;2022-11-20T01:54:07;2.70;99.90
5711;DHT22;61291;52.524;13.422;2022-11-20T01:56:37;2.70;99.90
5711;DHT22;61291;52.524;13.422;2022-11-20T01:59:05;2.70;99.90
5711;DHT22;61291;52.524;13.422;2022-11-20T02:01:33;2.70;99.90
5711;DHT22;61291;52.524;13.422;2022-11-20T02:03:59;2.70;99.90
5711;DHT22;61291;52.524;13.422;2022-11-20T02:06:44;2.70;99.90
5711;DHT22;61291;52.524;13.422;2022-11-20T02:09:11;2.80;99.90
5711;DHT22;61291;52.524;13.422;2022-11-20T02:11:37;2.70;99.90
5711;DHT22;61291;52.524;13.422;2022-11-20T02:14:02;2.80;99.90
5711;DHT22;61291;52.524;13.422;2022-11-20T02:16:31;2.80;99.90
5711;DHT22;61291;52.524;13.422;2022-11-20T02:19:01;2.80;99.90
5711;DHT22;61291;52.524;13.422;2022-11-20T02:21:40;2.80;99.90
5711;DHT22;61291;52.524;13.422;2022-11-20T02:24:15;2.80;99.90
5711;DHT22;61291;52.524;13.422;2022-11-20T02:26:52;2.80;99.90
5711;DHT22;61291;52.524;13.422;2022-11-20T02:29:24;2.80;99.90
5711;DHT22;61291;52.524;13.422;2022-11-20T02:31:51;2.80;99.90
5711;DHT22;61291;52.524;13.422;2022-11-20T02:34:19;2.70;99.90
5711;DHT22;61291;52.524;13.422;2022-11-20T02:36:44;2.80;99.90
5711;DHT22;61291;52.524;13.422;2022-11-20T02:39:13;2.80;99.90
5711;DHT22;61291;52.524;13.422;2022-11-20T02:41:42;2.80;99.90
5711;DHT22;61291;52.524;13.422;2022-11-20T02:44:07;2.80;99.90
5711;DHT22;61291;52.524;13.422;2022-11-20T02:46:33;2.80;99.90
5711;DHT22;61291;52.524;13.422;2022-11-20T02:49:00;2.80;99.90
5711;DHT22;61291;52.524;13.422;2022-11-20T02:51:25;2.80;99.90
5711;DHT22;61291;52.524;13.422;2022-11-20T02:53:51;2.80;99.90
5711;DHT22;61291;52.524;13.422;2022-11-20T02:56:16;2.80;99.90
5711;DHT22;61291;52.524;13.422;2022-11-20T02:58:42;2.80;99.90
5711;DHT22;61291;52.524;13.422;2022-11-20T03:01:07;2.80;99.90
5711;DHT22;61291;52.524;13.422;2022-11-20T03:03:33;2.80;99.90
5711;DHT22;61291;52.524;13.422;2022-11-20T03:05:59;2.80;99.90
5711;DHT22;61291;52.524;13.422;2022-11-20T03:08:25;2.80;99.90
5711;DHT22;61291;52.524;13.422;2022-11-20T03:10:50;2.80;99.90
5711;DHT22;61291;52.524;13.422;2022-11-20T03:13:16;2.80;99.90
5711;DHT22;61291;52.524;13.422;2022-11-20T03:15:41;2.80;99.90
5711;DHT22;61291;52.524;13.422;2022-11-20T03:18:07;2.70;99.90
5711;DHT22;61291;52.524;13.422;2022-11-20T03:20:33;2.70;99.90
5711;DHT22;61291;52.524;13.422;2022-11-20T03:22:59;2.70;99.90
5711;DHT22;61291;52.524;13.422;2022-11-20T03:25:25;2.70;99.90
5711;DHT22;61291;52.524;13.422;2022-11-20T03:27:50;2.60;99.90
5711;DHT22;61291;52.524;13.422;2022-11-20T03:30:16;2.60;99.90
5711;DHT22;61291;52.524;13.422;2022-11-20T03:32:41;2.70;99.90
5711;DHT22;61291;52.524;13.422;2022-11-20T03:35:07;2.70;99.90
5711;DHT22;61291;52.524;13.422;2022-11-20T03:37:33;2.70;99.90
5711;DHT22;61291;52.524;13.422;2022-11-20T03:39:58;2.70;99.90
5711;DHT22;61291;52.524;13.422;2022-11-20T03:42:24;2.70;99.90
5711;DHT22;61291;52.524;13.422;2022-11-20T03:45:08;2.70;99.90
5711;DHT22;61291;52.524;13.422;2022-11-20T03:47:34;2.70;99.90
5711;DHT22;61291;52.524;13.422;2022-11-20T03:49:59;2.80;99.90
5711;DHT22;61291;52.524;13.422;2022-11-20T03:52:24;2.70;99.90
5711;DHT22;61291;52.524;13.422;2022-11-20T03:54:50;2.70;99.90
5711;DHT22;61291;52.524;13.422;2022-11-20T03:57:15;2.70;99.90
5711;DHT22;61291;52.524;13.422;2022-11-20T03:59:41;2.70;99.90
5711;DHT22;61291;52.524;13.422;2022-11-20T04:02:06;2.70;99.90
5711;DHT22;61291;52.524;13.422;2022-11-20T04:04:32;2.60;99.90
5711;DHT22;61291;52.524;13.422;2022-11-20T04:06:57;2.60;99.90
5711;DHT22;61291;52.524;13.422;2022-11-20T04:09:23;2.60;99.90
5711;DHT22;61291;52.524;13.422;2022-11-20T04:11:48;2.60;99.90
5711;DHT22;61291;52.524;13.422;2022-11-20T04:14:15;2.60;99.90
5711;DHT22;61291;52.524;13.422;2022-11-20T04:16:41;2.50;99.90
5711;DHT22;61291;52.524;13.422;2022-11-20T04:19:10;2.50;99.90
5711;DHT22;61291;52.524;13.422;2022-11-20T04:21:36;2.50;99.90
5711;DHT22;61291;52.524;13.422;2022-11-20T04:24:02;2.50;99.90
5711;DHT22;61291;52.524;13.422;2022-11-20T04:26:28;2.50;99.90
5711;DHT22;61291;52.524;13.422;2022-11-20T04:28:55;2.50;99.90
5711;DHT22;61291;52.524;13.422;2022-11-20T04:31:22;2.40;99.90
5711;DHT22;61291;52.524;13.422;2022-11-20T04:33:48;2.40;99.90
5711;DHT22;61291;52.524;13.422;2022-11-20T04:36:17;2.30;99.90
5711;DHT22;61291;52.524;13.422;2022-11-20T04:38:43;2.30;99.90
5711;DHT22;61291;52.524;13.422;2022-11-20T04:41:14;2.30;99.90
5711;DHT22;61291;52.524;13.422;2022-11-20T04:43:40;2.20;99.90
5711;DHT22;61291;52.524;13.422;2022-11-20T04:46:05;2.20;99.90
5711;DHT22;61291;52.524;13.422;2022-11-20T04:48:31;2.20;99.90
5711;DHT22;61291;52.524;13.422;2022-11-20T04:50:57;2.20;99.90
5711;DHT22;61291;52.524;13.422;2022-11-20T04:53:22;2.20;99.90
5711;DHT22;61291;52.524;13.422;2022-11-20T04:55:48;2.10;99.90
5711;DHT22;61291;52.524;13.422;2022-11-20T04:58:14;2.10;99.90
5711;DHT22;61291;52.524;13.422;2022-11-20T05:00:40;2.10;99.90
5711;DHT22;61291;52.524;13.422;2022-11-20T05:03:06;2.10;99.90
5711;DHT22;61291;52.524;13.422;2022-11-20T05:05:33;2.10;99.90
5711;DHT22;61291;52.524;13.422;2022-11-20T05:07:59;2.20;99.90
5711;DHT22;61291;52.524;13.422;2022-11-20T05:10:26;2.20;99.90
5711;DHT22;61291;52.524;13.422;2022-11-20T05:12:52;2.20;99.90
5711;DHT22;61291;52.524;13.422;2022-11-20T05:15:18;2.20;99.90
5711;DHT22;61291;52.524;13.422;2022-11-20T05:17:50;2.20;99.90
5711;DHT22;61291;52.524;13.422;2022-11-20T05:20:16;2.20;99.90
5711;DHT22;61291;52.524;13.422;2022-11-20T05:22:42;2.20;99.90
5711;DHT22;61291;52.524;13.422;2022-11-20T05:25:08;2.20;99.90
5711;DHT22;61291;52.524;13.422;2022-11-20T05:27:33;2.20;99.90
5711;DHT22;61291;52.524;13.422;2022-11-20T05:29:59;2.20;99.90
5711;DHT22;61291;52.524;13.422;2022-11-20T05:32:24;2.20;99.90
5711;DHT22;61291;52.524;13.422;2022-11-20T05:34:51;2.20;99.90
5711;DHT22;61291;52.524;13.422;2022-11-20T05:37:16;2.30;99.90
5711;DHT22;61291;52.524;13.422;2022-11-20T05:39:42;2.20;99.90
5711;DHT22;61291;52.524;13.422;2022-11-20T05:42:07;2.20;99.90
5711;DHT22;61291;52.524;13.422;2022-11-20T05:44:52;2.30;99.90
5711;DHT22;61291;52.524;13.422;2022-11-20T05:47:17;2.30;99.90
5711;DHT22;61291;52.524;13.422;2022-11-20T05:49:43;2.30;99.90
5711;DHT22;61291;52.524;13.422;2022-11-20T05:52:08;2.20;99.90
5711;DHT22;61291;52.524;13.422;2022-11-20T05:54:34;2.30;99.90
5711;DHT22;61291;52.524;13.422;2022-11-20T05:56:59;2.20;99.90
5711;DHT22;61291;52.524;13.422;2022-11-20T05:59:25;2.20;99.90
5711;DHT22;61291;52.524;13.422;2022-11-20T06:01:50;2.20;99.90
5711;DHT22;61291;52.524;13.422;2022-11-20T06:04:16;2.30;99.90
5711;DHT22;61291;52.524;13.422;2022-11-20T06:06:41;2.20;99.90
5711;DHT22;61291;52.524;13.422;2022-11-20T06:09:07;2.20;99.90
5711;DHT22;61291;52.524;13.422;2022-11-20T06:11:32;2.20;99.90
5711;DHT22;61291;52.524;13.422;2022-11-20T06:13:58;2.20;99.90
5711;DHT22;61291;52.524;13.422;2022-11-20T06:16:23;2.10;99.90
5711;DHT22;61291;52.524;13.422;2022-11-20T06:18:49;2.20;99.90
5711;DHT22;61291;52.524;13.422;2022-11-20T06:21:17;2.10;99.90
5711;DHT22;61291;52.524;13.422;2022-11-20T06:23:43;2.10;99.90
5711;DHT22;61291;52.524;13.422;2022-11-20T06:26:15;2.10;99.90
5711;DHT22;61291;52.524;13.422;2022-11-20T06:28:41;2.10;99.90
5711;DHT22;61291;52.524;13.422;2022-11-20T06:31:07;2.10;99.90
5711;DHT22;61291;52.524;13.422;2022-11-20T06:33:35;2.10;99.90
5711;DHT22;61291;52.524;13.422;2022-11-20T06:36:01;2.10;99.90
5711;DHT22;61291;52.524;13.422;2022-11-20T06:38:27;2.10;99.90
5711;DHT22;61291;52.524;13.422;2022-11-20T06:40:53;2.10;99.90
5711;DHT22;61291;52.524;13.422;2022-11-20T06:43:19;2.10;99.90
5711;DHT22;61291;52.524;13.422;2022-11-20T06:45:45;2.10;99.90
5711;DHT22;61291;52.524;13.422;2022-11-20T06:48:10;2.10;99.90
5711;DHT22;61291;52.524;13.422;2022-11-20T06:50:37;2.10;99.90
5711;DHT22;61291;52.524;13.422;2022-11-20T06:53:03;2.10;99.90
5711;DHT22;61291;52.524;13.422;2022-11-20T06:55:30;2.20;99.90
5711;DHT22;61291;52.524;13.422;2022-11-20T06:57:55;2.20;99.90
5711;DHT22;61291;52.524;13.422;2022-11-20T07:00:21;2.20;99.90
5711;DHT22;61291;52.524;13.422;2022-11-20T07:02:46;2.20;99.90
5711;DHT22;61291;52.524;13.422;2022-11-20T07:05:12;2.30;99.90
5711;DHT22;61291;52.524;13.422;2022-11-20T07:07:38;2.30;99.90
5711;DHT22;61291;52.524;13.422;2022-11-20T07:10:04;2.30;99.90
5711;DHT22;61291;52.524;13.422;2022-11-20T07:12:29;2.30;99.90
5711;DHT22;61291;52.524;13.422;2022-11-20T07:14:55;2.30;99.90
5711;DHT22;61291;52.524;13.422;2022-11-20T07:17:20;2.30;99.90
5711;DHT22;61291;52.524;13.422;2022-11-20T07:19:46;2.30;99.90
5711;DHT22;61291;52.524;13.422;2022-11-20T07:22:11;2.30;99.90
5711;DHT22;61291;52.524;13.422;2022-11-20T07:24:38;2.40;99.90
5711;DHT22;61291;52.524;13.422;2022-11-20T07:27:04;2.40;99.90
5711;DHT22;61291;52.524;13.422;2022-11-20T07:29:29;2.40;99.90
5711;DHT22;61291;52.524;13.422;2022-11-20T07:31:55;2.50;99.90
5711;DHT22;61291;52.524;13.422;2022-11-20T07:34:21;2.50;99.90
5711;DHT22;61291;52.524;13.422;2022-11-20T07:36:47;2.60;99.90
5711;DHT22;61291;52.524;13.422;2022-11-20T07:39:12;2.70;99.90
5711;DHT22;61291;52.524;13.422;2022-11-20T07:41:38;2.80;99.90
5711;DHT22;61291;52.524;13.422;2022-11-20T07:44:03;2.80;99.90
5711;DHT22;61291;52.524;13.422;2022-11-20T07:46:29;2.80;99.90
5711;DHT22;61291;52.524;13.422;2022-11-20T07:48:54;2.90;99.90
5711;DHT22;61291;52.524;13.422;2022-11-20T07:51:20;3.00;99.90
5711;DHT22;61291;52.524;13.422;2022-11-20T07:53:45;3.00;99.90
5711;DHT22;61291;52.524;13.422;2022-11-20T07:56:11;3.10;99.90
5711;DHT22;61291;52.524;13.422;2022-11-20T07:58:36;3.10;99.90
5711;DHT22;61291;52.524;13.422;2022-11-20T08:01:06;3.20;99.90
5711;DHT22;61291;52.524;13.422;2022-11-20T08:03:32;3.20;99.90
5711;DHT22;61291;52.524;13.422;2022-11-20T08:06:01;3.30;99.90
5711;DHT22;61291;52.524;13.422;2022-11-20T08:08:27;3.30;99.90
5711;DHT22;61291;52.524;13.422;2022-11-20T08:10:56;3.30;99.90
5711;DHT22;61291;52.524;13.422;2022-11-20T08:13:42;3.40;99.90
5711;DHT22;61291;52.524;13.422;2022-11-20T08:16:26;3.40;99.90
5711;DHT22;61291;52.524;13.422;2022-11-20T08:18:52;3.50;99.90
5711;DHT22;61291;52.524;13.422;2022-11-20T08:21:17;3.50;99.90
5711;DHT22;61291;52.524;13.422;2022-11-20T08:23:42;3.60;99.90
5711;DHT22;61291;52.524;13.422;2022-11-20T08:26:08;3.70;99.90
5711;DHT22;61291;52.524;13.422;2022-11-20T08:28:33;3.80;99.90
5711;DHT22;61291;52.524;13.422;2022-11-20T08:31:00;3.90;99.90
5711;DHT22;61291;52.524;13.422;2022-11-20T08:33:26;4.00;99.90
5711;DHT22;61291;52.524;13.422;2022-11-20T08:35:51;4.00;99.90
5711;DHT22;61291;52.524;13.422;2022-11-20T08:38:17;3.90;99.90
5711;DHT22;61291;52.524;13.422;2022-11-20T08:40:42;3.90;99.90
5711;DHT22;61291;52.524;13.422;2022-11-20T08:43:28;3.80;99.90
5711;DHT22;61291;52.524;13.422;2022-11-20T08:45:53;3.70;99.90
5711;DHT22;61291;52.524;13.422;2022-11-20T08:48:21;3.70;99.90
5711;DHT22;61291;52.524;13.422;2022-11-20T08:50:46;3.80;99.90
5711;DHT22;61291;52.524;13.422;2022-11-20T08:53:12;4.00;99.90
5711;DHT22;61291;52.524;13.422;2022-11-20T08:55:37;4.00;99.90
5711;DHT22;61291;52.524;13.422;2022-11-20T08:58:05;4.20;99.90
5711;DHT22;61291;52.524;13.422;2022-11-20T09:00:31;4.30;99.90
5711;DHT22;61291;52.524;13.422;2022-11-20T09:02:57;4.30;99.90
5711;DHT22;61291;52.524;13.422;2022-11-20T09:05:24;4.40;99.90
5711;DHT22;61291;52.524;13.422;2022-11-20T09:07:49;4.50;99.90
5711;DHT22;61291;52.524;13.422;2022-11-20T09:10:15;4.40;99.90
5711;DHT22;61291;52.524;13.422;2022-11-20T09:12:40;4.30;99.90
5711;DHT22;61291;52.524;13.422;2022-11-20T09:15:06;4.30;99.90
5711;DHT22;61291;52.524;13.422;2022-11-20T09:17:32;4.20;99.90
5711;DHT22;61291;52.524;13.422;2022-11-20T09:19:57;4.20;99.90
5711;DHT22;61291;52.524;13.422;2022-11-20T09:22:23;4.10;99.90
5711;DHT22;61291;52.524;13.422;2022-11-20T09:24:48;4.20;99.90
5711;DHT22;61291;52.524;13.422;2022-11-20T09:27:14;4.30;99.90
5711;DHT22;61291;52.524;13.422;2022-11-20T09:29:40;4.30;99.90
5711;DHT22;61291;52.524;13.422;2022-11-20T09:32:05;4.40;99.90
5711;DHT22;61291;52.524;13.422;2022-11-20T09:34:31;4.60;99.90
5711;DHT22;61291;52.524;13.422;2022-11-20T09:36:57;4.70;99.90
5711;DHT22;61291;52.524;13.422;2022-11-20T09:39:22;4.80;99.90
5711;DHT22;61291;52.524;13.422;2022-11-20T09:50:45;5.20;99.90
5711;DHT22;61291;52.524;13.422;2022-11-20T09:53:30;5.20;99.90
5711;DHT22;61291;52.524;13.422;2022-11-20T09:55:56;5.30;99.90
5711;DHT22;61291;52.524;13.422;2022-11-20T09:58:35;5.30;99.90
5711;DHT22;61291;52.524;13.422;2022-11-20T10:01:12;5.50;99.90
5711;DHT22;61291;52.524;13.422;2022-11-20T10:03:56;5.60;99.90
5711;DHT22;61291;52.524;13.422;2022-11-20T10:06:37;5.70;99.90
5711;DHT22;61291;52.524;13.422;2022-11-20T10:09:17;5.90;99.90
5711;DHT22;61291;52.524;13.422;2022-11-20T10:14:50;5.90;99.90
5711;DHT22;61291;52.524;13.422;2022-11-20T10:23:10;6.40;99.90
5711;DHT22;61291;52.524;13.422;2022-11-20T10:25:44;6.50;99.90
5711;DHT22;61291;52.524;13.422;2022-11-20T10:28:46;6.40;99.90
5711;DHT22;61291;52.524;13.422;2022-11-20T10:34:06;6.00;99.90
5711;DHT22;61291;52.524;13.422;2022-11-20T10:36:41;6.00;99.90
5711;DHT22;61291;52.524;13.422;2022-11-20T10:39:39;6.10;99.90
5711;DHT22;61291;52.524;13.422;2022-11-20T10:42:11;6.10;99.90
5711;DHT22;61291;52.524;13.422;2022-11-20T10:44:39;6.10;99.90
5711;DHT22;61291;52.524;13.422;2022-11-20T10:47:28;6.10;99.90
5711;DHT22;61291;52.524;13.422;2022-11-20T10:49:57;6.30;99.90
5711;DHT22;61291;52.524;13.422;2022-11-20T10:52:55;6.30;99.90
5711;DHT22;61291;52.524;13.422;2022-11-20T10:55:50;6.20;99.90
5711;DHT22;61291;52.524;13.422;2022-11-20T10:58:36;6.10;99.90
5711;DHT22;61291;52.524;13.422;2022-11-20T11:01:11;5.90;99.90
5711;DHT22;61291;52.524;13.422;2022-11-20T11:03:38;6.00;99.90
5711;DHT22;61291;52.524;13.422;2022-11-20T11:08:53;6.60;99.90
5711;DHT22;61291;52.524;13.422;2022-11-20T11:11:27;7.10;99.90
5711;DHT22;61291;52.524;13.422;2022-11-20T11:14:10;7.50;99.90
5711;DHT22;61291;52.524;13.422;2022-11-20T11:16:55;7.60;99.90
5711;DHT22;61291;52.524;13.422;2022-11-20T11:19:22;7.70;99.90
5711;DHT22;61291;52.524;13.422;2022-11-20T11:21:54;7.60;99.90
5711;DHT22;61291;52.524;13.422;2022-11-20T11:26:57;7.50;99.90
5711;DHT22;61291;52.524;13.422;2022-11-20T11:29:23;7.20;99.90
5711;DHT22;61291;52.524;13.422;2022-11-20T11:32:03;7.10;99.90
5711;DHT22;61291;52.524;13.422;2022-11-20T11:34:29;7.10;99.90
5711;DHT22;61291;52.524;13.422;2022-11-20T11:36:58;7.00;99.90
5711;DHT22;61291;52.524;13.422;2022-11-20T11:39:26;6.90;99.90
5711;DHT22;61291;52.524;13.422;2022-11-20T11:41:52;6.90;99.90
5711;DHT22;61291;52.524;13.422;2022-11-20T11:44:33;6.90;99.90
5711;DHT22;61291;52.524;13.422;2022-11-20T11:47:26;6.80;99.90
5711;DHT22;61291;52.524;13.422;2022-11-20T11:52:44;6.70;99.90
5711;DHT22;61291;52.524;13.422;2022-11-20T11:55:42;6.60;99.90
5711;DHT22;61291;52.524;13.422;2022-11-20T12:04:00;5.90;99.90
5711;DHT22;61291;52.524;13.422;2022-11-20T12:06:28;5.70;99.90
5711;DHT22;61291;52.524;13.422;2022-11-20T12:09:01;5.70;99.90
5711;DHT22;61291;52.524;13.422;2022-11-20T12:14:22;5.50;99.90
5711;DHT22;61291;52.524;13.422;2022-11-20T12:16:51;5.40;99.90
5711;DHT22;61291;52.524;13.422;2022-11-20T12:19:18;5.40;99.90
5711;DHT22;61291;52.524;13.422;2022-11-20T12:21:58;5.40;99.90
5711;DHT22;61291;52.524;13.422;2022-11-20T12:27:37;5.40;99.90
5711;DHT22;61291;52.524;13.422;2022-11-20T12:30:15;5.40;99.90
5711;DHT22;61291;52.524;13.422;2022-11-20T12:33:18;5.40;99.90
5711;DHT22;61291;52.524;13.422;2022-11-20T12:36:05;5.30;99.90
5711;DHT22;61291;52.524;13.422;2022-11-20T12:44:36;4.70;99.90
5711;DHT22;61291;52.524;13.422;2022-11-20T12:47:51;4.50;99.90
5711;DHT22;61291;52.524;13.422;2022-11-20T12:50:47;4.40;99.90
5711;DHT22;61291;52.524;13.422;2022-11-20T12:53:25;4.20;99.90
5711;DHT22;61291;52.524;13.422;2022-11-20T12:58:43;4.00;99.90
5711;DHT22;61291;52.524;13.422;2022-11-20T13:01:27;4.30;99.90
5711;DHT22;61291;52.524;13.422;2022-11-20T13:06:51;4.70;99.90
5711;DHT22;61291;52.524;13.422;2022-11-20T13:09:19;4.60;99.90
5711;DHT22;61291;52.524;13.422;2022-11-20T13:12:17;4.70;99.90
5711;DHT22;61291;52.524;13.422;2022-11-20T13:15:02;4.80;99.90
5711;DHT22;61291;52.524;13.422;2022-11-20T13:17:43;4.80;99.90
5711;DHT22;61291;52.524;13.422;2022-11-20T13:20:15;4.90;99.90
5711;DHT22;61291;52.524;13.422;2022-11-20T13:22:46;5.10;99.90
5711;DHT22;61291;52.524;13.422;2022-11-20T13:25:30;5.60;99.90
5711;DHT22;61291;52.524;13.422;2022-11-20T13:27:57;5.90;99.90
5711;DHT22;61291;52.524;13.422;2022-11-20T13:30:24;6.00;99.90
5711;DHT22;61291;52.524;13.422;2022-11-20T13:33:07;5.90;99.90
5711;DHT22;61291;52.524;13.422;2022-11-20T13:35:36;5.80;99.90
5711;DHT22;61291;52.524;13.422;2022-11-20T13:38:08;5.70;99.90
5711;DHT22;61291;52.524;13.422;2022-11-20T13:40:36;5.60;99.90
5711;DHT22;61291;52.524;13.422;2022-11-20T13:43:23;5.60;99.90
5711;DHT22;61291;52.524;13.422;2022-11-20T13:46:03;5.50;99.90
5711;DHT22;61291;52.524;13.422;2022-11-20T13:48:41;5.40;99.90
5711;DHT22;61291;52.524;13.422;2022-11-20T13:59:52;5.00;99.90
5711;DHT22;61291;52.524;13.422;2022-11-20T14:02:21;4.90;99.90
5711;DHT22;61291;52.524;13.422;2022-11-20T14:04:49;4.80;99.90
5711;DHT22;61291;52.524;13.422;2022-11-20T14:07:18;4.70;99.90
5711;DHT22;61291;52.524;13.422;2022-11-20T14:09:52;4.60;99.90
5711;DHT22;61291;52.524;13.422;2022-11-20T14:12:21;4.40;99.90
5711;DHT22;61291;52.524;13.422;2022-11-20T14:14:49;4.40;99.90
5711;DHT22;61291;52.524;13.422;2022-11-20T14:17:29;4.30;99.90
5711;DHT22;61291;52.524;13.422;2022-11-20T14:19:58;4.20;99.90
5711;DHT22;61291;52.524;13.422;2022-11-20T14:22:27;4.20;99.90
5711;DHT22;61291;52.524;13.422;2022-11-20T14:27:42;4.00;99.90
5711;DHT22;61291;52.524;13.422;2022-11-20T14:30:15;3.90;99.90
5711;DHT22;61291;52.524;13.422;2022-11-20T14:32:42;3.80;99.90
5711;DHT22;61291;52.524;13.422;2022-11-20T14:35:10;3.80;99.90
5711;DHT22;61291;52.524;13.422;2022-11-20T14:37:39;3.80;99.90
5711;DHT22;61291;52.524;13.422;2022-11-20T14:42:47;3.70;99.90
5711;DHT22;61291;52.524;13.422;2022-11-20T14:45:13;3.50;99.90
5711;DHT22;61291;52.524;13.422;2022-11-20T14:47:40;3.50;99.90
5711;DHT22;61291;52.524;13.422;2022-11-20T14:50:14;3.50;99.90
5711;DHT22;61291;52.524;13.422;2022-11-20T14:52:50;3.50;99.90
5711;DHT22;61291;52.524;13.422;2022-11-20T14:55:25;3.50;99.90
5711;DHT22;61291;52.524;13.422;2022-11-20T14:58:25;3.50;99.90
5711;DHT22;61291;52.524;13.422;2022-11-20T15:00:57;3.40;99.90
5711;DHT22;61291;52.524;13.422;2022-11-20T15:03:31;3.40;99.90
5711;DHT22;61291;52.524;13.422;2022-11-20T15:05:57;3.40;99.90
5711;DHT22;61291;52.524;13.422;2022-11-20T15:08:22;3.40;99.90
5711;DHT22;61291;52.524;13.422;2022-11-20T15:10:52;3.40;99.90
5711;DHT22;61291;52.524;13.422;2022-11-20T15:13:34;3.40;99.90
5711;DHT22;61291;52.524;13.422;2022-11-20T15:16:02;3.40;99.90
5711;DHT22;61291;52.524;13.422;2022-11-20T15:18:36;3.40;99.90
5711;DHT22;61291;52.524;13.422;2022-11-20T15:21:04;3.30;99.90
5711;DHT22;61291;52.524;13.422;2022-11-20T15:23:31;3.30;99.90
5711;DHT22;61291;52.524;13.422;2022-11-20T15:25:57;3.30;99.90
5711;DHT22;61291;52.524;13.422;2022-11-20T15:28:35;3.30;99.90
5711;DHT22;61291;52.524;13.422;2022-11-20T15:31:02;3.30;99.90
5711;DHT22;61291;52.524;13.422;2022-11-20T15:33:30;3.30;99.90
5711;DHT22;61291;52.524;13.422;2022-11-20T15:35:56;3.20;99.90
5711;DHT22;61291;52.524;13.422;2022-11-20T15:38:22;3.20;99.90
5711;DHT22;61291;52.524;13.422;2022-11-20T15:40:47;3.20;99.90
5711;DHT22;61291;52.524;13.422;2022-11-20T15:43:13;3.20;99.90
5711;DHT22;61291;52.524;13.422;2022-11-20T15:45:53;3.20;99.90
5711;DHT22;61291;52.524;13.422;2022-11-20T15:48:26;3.30;99.90
5711;DHT22;61291;52.524;13.422;2022-11-20T15:53:40;3.30;99.90
5711;DHT22;61291;52.524;13.422;2022-11-20T15:56:12;3.20;99.90
5711;DHT22;61291;52.524;13.422;2022-11-20T15:58:38;3.20;99.90
5711;DHT22;61291;52.524;13.422;2022-11-20T16:01:04;3.10;99.90
5711;DHT22;61291;52.524;13.422;2022-11-20T16:03:29;2.90;99.90
5711;DHT22;61291;52.524;13.422;2022-11-20T16:05:55;2.50;99.90
5711;DHT22;61291;52.524;13.422;2022-11-20T16:08:24;2.30;99.90
5711;DHT22;61291;52.524;13.422;2022-11-20T16:10:49;2.00;99.90
5711;DHT22;61291;52.524;13.422;2022-11-20T16:13:17;1.70;99.90
5711;DHT22;61291;52.524;13.422;2022-11-20T16:16:04;1.50;99.90
5711;DHT22;61291;52.524;13.422;2022-11-20T16:18:34;1.40;99.90
5711;DHT22;61291;52.524;13.422;2022-11-20T16:21:00;1.20;99.90
5711;DHT22;61291;52.524;13.422;2022-11-20T16:23:29;1.10;99.90
5711;DHT22;61291;52.524;13.422;2022-11-20T16:25:55;1.00;99.90
5711;DHT22;61291;52.524;13.422;2022-11-20T16:28:20;0.90;99.90
5711;DHT22;61291;52.524;13.422;2022-11-20T16:30:46;0.80;99.90
5711;DHT22;61291;52.524;13.422;2022-11-20T16:33:16;0.80;99.90
5711;DHT22;61291;52.524;13.422;2022-11-20T16:35:45;0.70;99.90
5711;DHT22;61291;52.524;13.422;2022-11-20T16:38:10;0.50;99.90
5711;DHT22;61291;52.524;13.422;2022-11-20T16:40:36;0.40;99.90
5711;DHT22;61291;52.524;13.422;2022-11-20T16:43:10;0.40;99.90
5711;DHT22;61291;52.524;13.422;2022-11-20T16:45:43;0.30;99.90
5711;DHT22;61291;52.524;13.422;2022-11-20T16:48:14;0.30;99.90
5711;DHT22;61291;52.524;13.422;2022-11-20T16:50:51;0.30;99.90
5711;DHT22;61291;52.524;13.422;2022-11-20T16:53:18;0.30;99.90
5711;DHT22;61291;52.524;13.422;2022-11-20T16:55:44;0.20;99.90
5711;DHT22;61291;52.524;13.422;2022-11-20T16:58:09;0.20;99.90
5711;DHT22;61291;52.524;13.422;2022-11-20T17:00:36;0.20;99.90
5711;DHT22;61291;52.524;13.422;2022-11-20T17:03:03;0.30;99.90
5711;DHT22;61291;52.524;13.422;2022-11-20T17:05:29;0.60;99.90
5711;DHT22;61291;52.524;13.422;2022-11-20T17:07:54;0.80;99.90